Time;durP1;ratioP1;P1;durP2;ratioP2;P2;SDS_P1;SDS_P2;PMS_P1;PMS_P2;Temp;Humidity;BMP_temperature;BMP_pressure;BME280_temperature;BME280_humidity;BME280_pressure;Samples;Min_cycle;Max_cycle;Signal;HPM_P1;HPM_P2
2023/04/04 00:00:28;;;;;;;3.63;0.60;;;2.70;92.70;;;;;;5033225;28;20048;-74
2023/04/04 00:02:54;;;;;;;2.13;0.70;;;2.70;92.90;;;;;;5007366;28;20051;-74
2023/04/04 00:05:21;;;;;;;4.20;0.87;;;2.70;92.90;;;;;;4996143;28;20052;-74
2023/04/04 00:07:48;;;;;;;3.80;0.67;;;2.70;93.10;;;;;;4997154;28;20475;-75
2023/04/04 00:10:14;;;;;;;3.20;0.60;;;2.70;93.20;;;;;;5031008;28;20498;-74
2023/04/04 00:12:42;;;;;;;1.53;0.50;;;2.70;93.20;;;;;;5030092;28;20036;-74
2023/04/04 00:15:10;;;;;;;3.53;1.00;;;2.70;93.40;;;;;;5038273;28;20059;-75
2023/04/04 00:17:36;;;;;;;2.20;0.53;;;2.70;93.60;;;;;;5018402;28;20071;-74
2023/04/04 00:20:03;;;;;;;2.97;0.80;;;2.70;93.60;;;;;;4999779;28;21279;-74
2023/04/04 00:22:29;;;;;;;2.40;0.60;;;2.70;93.70;;;;;;5007893;28;20075;-74
2023/04/04 00:24:56;;;;;;;6.20;0.73;;;2.60;93.70;;;;;;5034006;28;20058;-75
2023/04/04 00:27:22;;;;;;;1.70;0.60;;;2.60;93.80;;;;;;5012918;28;20059;-74
2023/04/04 00:29:48;;;;;;;1.73;0.70;;;2.60;94.00;;;;;;4998016;28;20719;-74
2023/04/04 00:32:15;;;;;;;1.90;0.50;;;2.50;94.10;;;;;;5006345;28;20032;-75
2023/04/04 00:34:42;;;;;;;2.23;0.60;;;2.50;94.20;;;;;;5032301;28;20032;-73
2023/04/04 00:37:11;;;;;;;1.63;0.40;;;2.50;94.30;;;;;;5000996;28;20120;-73
2023/04/04 00:39:37;;;;;;;2.93;0.60;;;2.50;94.50;;;;;;5016995;28;20060;-74
2023/04/04 00:42:03;;;;;;;2.90;0.80;;;2.50;94.50;;;;;;5010815;28;20045;-74
2023/04/04 00:44:31;;;;;;;3.17;0.80;;;2.50;94.60;;;;;;4998188;28;20044;-74
2023/04/04 00:46:57;;;;;;;3.10;0.70;;;2.40;94.70;;;;;;5016023;28;20037;-73
2023/04/04 00:49:23;;;;;;;3.43;0.87;;;2.40;94.80;;;;;;5013410;28;20039;-73
2023/04/04 00:51:50;;;;;;;2.57;0.70;;;2.40;94.90;;;;;;4994154;28;20033;-73
2023/04/04 00:54:16;;;;;;;3.00;0.70;;;2.40;95.10;;;;;;4998486;28;20044;-73
2023/04/04 00:56:42;;;;;;;1.67;0.50;;;2.30;95.10;;;;;;4997755;28;20043;-73
2023/04/04 00:59:09;;;;;;;3.40;0.90;;;2.30;95.20;;;;;;5017377;28;20037;-74
2023/04/04 01:01:35;;;;;;;1.87;0.60;;;2.30;95.30;;;;;;5015064;28;20024;-73
2023/04/04 01:04:02;;;;;;;2.93;0.50;;;2.30;95.40;;;;;;5030162;28;20044;-73
2023/04/04 01:06:31;;;;;;;3.70;1.27;;;2.30;95.50;;;;;;5013778;28;20029;-73
2023/04/04 01:08:58;;;;;;;2.23;0.80;;;2.30;95.80;;;;;;5000604;28;20407;-73
2023/04/04 01:11:26;;;;;;;3.70;1.20;;;2.30;95.90;;;;;;5031722;28;20033;-73
2023/04/04 01:13:54;;;;;;;3.30;0.87;;;2.30;96.00;;;;;;5010534;28;20040;-74
2023/04/04 01:16:22;;;;;;;4.27;0.80;;;2.30;96.10;;;;;;5014806;28;20036;-73
2023/04/04 01:18:51;;;;;;;2.10;0.60;;;2.30;96.20;;;;;;5017100;28;20051;-74
2023/04/04 01:21:20;;;;;;;2.37;0.60;;;2.20;96.30;;;;;;5034847;28;20060;-73
2023/04/04 01:24:00;;;;;;;1.80;0.60;;;2.20;96.40;;;;;;4997331;28;20695;-74
2023/04/04 01:26:31;;;;;;;2.80;0.73;;;2.20;96.50;;;;;;5018973;28;20028;-73
2023/04/04 01:29:01;;;;;;;3.87;0.70;;;2.10;96.60;;;;;;4987685;28;20064;-74
2023/04/04 01:31:37;;;;;;;1.07;0.47;;;2.10;96.70;;;;;;4999792;28;20055;-73
2023/04/04 01:34:14;;;;;;;2.63;0.60;;;2.10;96.80;;;;;;4997873;28;20379;-73
2023/04/04 01:36:48;;;;;;;2.10;0.57;;;2.00;97.00;;;;;;5018904;28;20044;-73
2023/04/04 01:39:34;;;;;;;1.73;0.50;;;2.00;97.10;;;;;;5021431;28;23088;-73
2023/04/04 01:42:02;;;;;;;5.57;0.70;;;1.90;97.10;;;;;;5034473;28;20376;-73
2023/04/04 01:44:29;;;;;;;1.80;0.40;;;1.90;97.40;;;;;;5018839;28;20040;-74
2023/04/04 01:46:55;;;;;;;1.47;0.50;;;1.90;97.50;;;;;;5004876;28;20044;-73
2023/04/04 01:49:22;;;;;;;1.53;0.50;;;1.90;97.60;;;;;;5016470;28;20044;-74
2023/04/04 01:51:53;;;;;;;2.00;0.47;;;1.80;97.60;;;;;;5013531;28;20047;-73
2023/04/04 01:54:21;;;;;;;2.67;0.60;;;1.80;97.80;;;;;;4998659;28;20044;-74
2023/04/04 01:56:47;;;;;;;1.63;0.60;;;1.80;97.90;;;;;;5002987;28;20052;-74
2023/04/04 01:59:14;;;;;;;1.87;0.50;;;1.70;98.30;;;;;;5005038;28;20040;-73
2023/04/04 02:01:40;;;;;;;1.30;0.33;;;1.70;98.10;;;;;;4985646;28;20044;-74
2023/04/04 02:04:09;;;;;;;1.07;0.30;;;1.60;98.20;;;;;;4984308;28;20037;-73
2023/04/04 02:06:36;;;;;;;1.97;0.40;;;1.60;98.30;;;;;;5016474;28;20048;-74
2023/04/04 02:09:03;;;;;;;2.83;0.40;;;1.60;98.40;;;;;;4997917;28;20036;-74
2023/04/04 02:11:30;;;;;;;2.13;0.50;;;1.50;98.50;;;;;;5015333;28;22753;-75
2023/04/04 02:13:57;;;;;;;2.17;0.53;;;1.50;98.60;;;;;;5011966;28;20032;-74
2023/04/04 02:16:26;;;;;;;1.90;0.50;;;1.50;98.80;;;;;;5015954;28;20044;-74
2023/04/04 02:18:52;;;;;;;1.03;0.40;;;1.50;98.80;;;;;;5004131;28;20041;-75
2023/04/04 02:21:18;;;;;;;1.93;0.40;;;1.50;98.90;;;;;;5000467;28;20052;-75
2023/04/04 02:23:45;;;;;;;2.47;0.50;;;1.50;99.00;;;;;;4997417;28;20495;-75
2023/04/04 02:26:11;;;;;;;1.47;0.50;;;1.50;99.10;;;;;;4983124;28;20610;-74
2023/04/04 02:28:37;;;;;;;2.63;0.60;;;1.50;99.20;;;;;;5000662;28;20104;-75
2023/04/04 02:31:04;;;;;;;1.60;0.40;;;1.40;99.20;;;;;;5012563;28;20043;-75
2023/04/04 02:33:30;;;;;;;1.80;0.40;;;1.50;99.40;;;;;;4995352;28;20361;-74
2023/04/04 02:36:00;;;;;;;1.70;0.40;;;1.40;99.40;;;;;;5029778;28;23207;-74
2023/04/04 02:38:28;;;;;;;1.10;0.40;;;1.40;99.50;;;;;;5017845;28;20029;-75
2023/04/04 02:40:55;;;;;;;2.37;0.47;;;1.40;99.50;;;;;;5037504;28;20064;-74
2023/04/04 02:43:21;;;;;;;1.03;0.40;;;1.40;99.60;;;;;;5013773;28;20151;-75
2023/04/04 02:45:49;;;;;;;2.17;0.50;;;1.30;99.70;;;;;;5037912;28;20068;-74
2023/04/04 02:48:26;;;;;;;1.33;0.40;;;1.30;99.90;;;;;;5016471;28;20495;-74
2023/04/04 02:50:56;;;;;;;2.30;0.60;;;1.30;99.90;;;;;;5032356;28;20036;-74
2023/04/04 02:53:22;;;;;;;1.20;0.50;;;1.30;99.90;;;;;;5011099;28;20098;-74
2023/04/04 02:55:52;;;;;;;1.17;0.50;;;1.30;99.90;;;;;;5016523;28;20048;-75
2023/04/04 02:58:19;;;;;;;2.13;0.50;;;1.20;99.90;;;;;;5016071;28;20032;-75
2023/04/04 03:00:52;;;;;;;1.80;0.40;;;1.20;99.90;;;;;;5036162;28;20040;-74
2023/04/04 03:03:18;;;;;;;1.80;0.40;;;1.20;99.90;;;;;;5014218;28;20032;-75
2023/04/04 03:05:48;;;;;;;2.13;0.50;;;1.10;99.90;;;;;;4986086;28;20052;-75
2023/04/04 03:08:15;;;;;;;1.90;0.50;;;1.10;99.90;;;;;;5015074;28;20033;-74
2023/04/04 03:10:41;;;;;;;1.83;0.40;;;1.10;99.90;;;;;;5012262;28;20127;-74
2023/04/04 03:13:07;;;;;;;1.90;0.53;;;1.00;99.90;;;;;;4994197;28;20368;-75
2023/04/04 03:15:34;;;;;;;2.37;0.50;;;1.00;99.90;;;;;;5014702;28;20029;-74
2023/04/04 03:18:01;;;;;;;1.07;0.40;;;1.00;99.90;;;;;;5015672;28;20067;-75
2023/04/04 03:20:30;;;;;;;2.90;0.67;;;0.90;99.90;;;;;;5002060;28;20056;-74
2023/04/04 03:22:57;;;;;;;2.87;0.60;;;0.90;99.90;;;;;;5031572;28;21070;-74
2023/04/04 03:25:24;;;;;;;1.80;0.40;;;0.90;99.90;;;;;;5017745;28;20040;-75
2023/04/04 03:27:50;;;;;;;1.20;0.40;;;0.90;99.90;;;;;;5002367;28;20507;-75
2023/04/04 03:30:23;;;;;;;2.00;0.40;;;0.80;99.90;;;;;;5012835;28;20043;-75
2023/04/04 03:32:49;;;;;;;2.80;0.40;;;0.80;99.90;;;;;;5029246;28;20032;-74
2023/04/04 03:35:15;;;;;;;1.67;0.40;;;0.80;99.90;;;;;;5016266;28;20040;-76
2023/04/04 03:37:42;;;;;;;1.50;0.50;;;0.80;99.90;;;;;;4996708;28;20036;-74
2023/04/04 03:40:09;;;;;;;3.30;0.60;;;0.70;99.90;;;;;;5016445;28;20029;-75
2023/04/04 03:42:35;;;;;;;5.43;0.43;;;0.70;99.90;;;;;;5013608;28;20053;-74
2023/04/04 03:45:07;;;;;;;1.20;0.60;;;0.70;99.90;;;;;;5017730;28;20031;-74
2023/04/04 03:47:34;;;;;;;2.47;0.60;;;0.70;99.90;;;;;;4998801;28;20040;-75
2023/04/04 03:50:01;;;;;;;2.10;0.60;;;0.70;99.90;;;;;;4981497;28;20036;-75
2023/04/04 03:52:28;;;;;;;3.00;0.70;;;0.70;99.90;;;;;;4977761;28;20032;-75
2023/04/04 03:54:55;;;;;;;1.67;0.50;;;0.70;99.90;;;;;;5014279;28;20036;-75
2023/04/04 03:57:21;;;;;;;1.33;0.47;;;0.70;99.90;;;;;;5014200;28;20395;-75
2023/04/04 03:59:48;;;;;;;1.47;0.53;;;0.70;99.90;;;;;;5016587;28;20067;-75
2023/04/04 04:02:14;;;;;;;1.90;0.40;;;0.70;99.90;;;;;;5030662;28;20044;-74
2023/04/04 04:04:40;;;;;;;1.70;0.60;;;0.60;99.90;;;;;;5003053;28;20041;-74
2023/04/04 04:07:07;;;;;;;2.10;0.50;;;0.60;99.90;;;;;;4999367;28;20067;-75
2023/04/04 04:09:34;;;;;;;1.33;0.60;;;0.60;99.90;;;;;;5014453;28;20036;-75
2023/04/04 04:12:00;;;;;;;1.37;0.40;;;0.60;99.90;;;;;;4992242;28;20574;-74
2023/04/04 04:14:26;;;;;;;1.07;0.40;;;0.60;99.90;;;;;;5012263;28;20044;-74
2023/04/04 04:16:53;;;;;;;3.87;0.60;;;0.60;99.90;;;;;;5000438;28;20435;-75
2023/04/04 04:19:22;;;;;;;1.90;0.40;;;0.60;99.90;;;;;;5031664;28;20048;-74
2023/04/04 04:21:48;;;;;;;1.50;0.50;;;0.50;99.90;;;;;;5011479;28;20499;-75
2023/04/04 04:24:16;;;;;;;2.33;0.50;;;0.50;99.90;;;;;;5000093;28;20083;-75
2023/04/04 04:26:43;;;;;;;1.40;0.50;;;0.50;99.90;;;;;;5015538;28;20032;-76
2023/04/04 04:29:11;;;;;;;2.17;0.40;;;0.50;99.90;;;;;;5014096;28;20036;-74
2023/04/04 04:31:38;;;;;;;4.10;0.60;;;0.40;99.90;;;;;;4996016;28;20029;-74
2023/04/04 04:34:07;;;;;;;2.07;0.50;;;0.40;99.90;;;;;;5011419;28;20052;-74
2023/04/04 04:36:35;;;;;;;1.90;0.60;;;0.40;99.90;;;;;;4997749;28;20384;-74
2023/04/04 04:39:16;;;;;;;2.53;0.60;;;0.40;99.90;;;;;;4982972;28;20036;-76
2023/04/04 04:41:56;;;;;;;1.43;0.60;;;0.40;99.90;;;;;;5011085;28;20032;-74
2023/04/04 04:44:24;;;;;;;1.43;0.50;;;0.40;99.90;;;;;;5036698;28;20575;-74
2023/04/04 04:46:54;;;;;;;2.30;0.60;;;0.30;99.90;;;;;;5017935;28;20036;-75
2023/04/04 04:49:20;;;;;;;2.13;0.47;;;0.40;99.90;;;;;;5012500;28;20036;-74
2023/04/04 04:51:48;;;;;;;1.40;0.40;;;0.40;99.90;;;;;;5008799;28;20040;-74
2023/04/04 04:54:15;;;;;;;1.33;0.40;;;0.30;99.90;;;;;;5012842;28;20044;-74
2023/04/04 04:56:44;;;;;;;1.23;0.63;;;0.30;99.90;;;;;;4998063;28;20029;-75
2023/04/04 04:59:11;;;;;;;2.40;0.40;;;0.30;99.90;;;;;;5014841;28;20036;-73
2023/04/04 05:01:41;;;;;;;3.33;0.90;;;0.30;99.90;;;;;;4999668;28;20060;-74
2023/04/04 05:04:07;;;;;;;1.23;0.50;;;0.20;99.90;;;;;;5019241;28;20032;-73
2023/04/04 05:06:43;;;;;;;1.07;0.50;;;0.20;99.90;;;;;;5021285;28;20035;-75
2023/04/04 05:09:11;;;;;;;1.33;0.47;;;0.20;99.90;;;;;;4999286;28;20052;-74
2023/04/04 05:11:38;;;;;;;3.17;0.50;;;0.20;99.90;;;;;;4996634;28;20391;-73
2023/04/04 05:14:07;;;;;;;2.27;0.40;;;0.20;99.90;;;;;;5016137;28;20040;-74
2023/04/04 05:16:38;;;;;;;2.40;0.50;;;0.20;99.90;;;;;;5003391;28;20028;-74
2023/04/04 05:19:05;;;;;;;1.67;0.50;;;0.20;99.90;;;;;;5000750;28;20557;-74
2023/04/04 05:21:37;;;;;;;1.35;0.40;;;0.20;99.90;;;;;;4989132;28;20422;-73
2023/04/04 05:24:07;;;;;;;2.53;0.50;;;0.20;99.90;;;;;;5000996;28;20042;-74
2023/04/04 05:26:37;;;;;;;1.57;0.50;;;0.20;99.90;;;;;;5022295;28;20043;-74
2023/04/04 05:29:04;;;;;;;2.60;0.40;;;0.30;99.90;;;;;;5018695;28;20036;-74
2023/04/04 05:31:32;;;;;;;2.80;0.70;;;0.30;99.90;;;;;;5020439;28;20253;-73
2023/04/04 05:34:07;;;;;;;2.20;0.50;;;0.40;99.90;;;;;;5014466;28;20539;-75
2023/04/04 05:36:35;;;;;;;3.17;0.63;;;0.40;99.90;;;;;;5018299;28;20032;-73
2023/04/04 05:39:05;;;;;;;2.23;0.60;;;0.40;99.90;;;;;;5018110;28;20043;-74
2023/04/04 05:41:33;;;;;;;0.90;0.40;;;0.50;99.90;;;;;;5000539;28;20099;-75
2023/04/04 05:44:08;;;;;;;2.47;0.53;;;0.50;99.90;;;;;;5002155;28;20048;-73
2023/04/04 05:46:34;;;;;;;2.73;0.57;;;0.60;99.90;;;;;;5040831;28;21113;-75
2023/04/04 05:49:00;;;;;;;3.80;1.57;;;0.60;99.90;;;;;;5001202;28;20334;-75
2023/04/04 05:51:27;;;;;;;4.67;1.77;;;0.70;99.90;;;;;;5000034;28;20399;-76
2023/04/04 05:54:14;;;;;;;3.53;1.47;;;0.70;99.90;;;;;;5006553;28;20513;-76
2023/04/04 05:56:42;;;;;;;2.47;1.00;;;0.80;99.90;;;;;;5000124;28;20464;-75
2023/04/04 05:59:16;;;;;;;3.83;1.13;;;0.90;99.90;;;;;;5016751;28;20041;-74
2023/04/04 06:01:52;;;;;;;4.03;1.53;;;1.00;99.90;;;;;;5013151;28;21114;-76
2023/04/04 06:04:19;;;;;;;3.77;0.90;;;1.10;99.90;;;;;;5004006;28;20387;-73
2023/04/04 06:06:46;;;;;;;6.17;2.63;;;1.20;99.90;;;;;;5020010;28;20040;-76
2023/04/04 06:09:12;;;;;;;6.10;1.50;;;1.40;99.90;;;;;;5014570;28;20035;-75
2023/04/04 06:11:38;;;;;;;2.90;1.00;;;1.50;99.90;;;;;;5012876;28;20032;-73
2023/04/04 06:14:08;;;;;;;3.97;1.30;;;1.70;99.90;;;;;;5012308;28;20656;-77
2023/04/04 06:16:35;;;;;;;2.30;0.90;;;1.90;99.90;;;;;;5003635;28;20369;-75
2023/04/04 06:19:02;;;;;;;1.67;0.80;;;2.10;99.90;;;;;;4997965;28;20037;-76
2023/04/04 06:21:29;;;;;;;11.47;2.87;;;2.30;99.90;;;;;;4998227;28;20060;-75
2023/04/04 06:23:56;;;;;;;8.50;1.97;;;2.50;99.90;;;;;;5014341;28;20578;-73
2023/04/04 06:26:22;;;;;;;8.00;1.63;;;2.70;99.90;;;;;;5037196;28;20045;-75
2023/04/04 06:28:50;;;;;;;6.77;1.00;;;2.90;99.90;;;;;;5018045;28;20044;-75
2023/04/04 06:31:26;;;;;;;5.90;1.20;;;3.10;99.90;;;;;;5029694;28;20347;-74
2023/04/04 06:33:57;;;;;;;5.53;1.20;;;3.20;99.90;;;;;;5011619;28;21007;-74
2023/04/04 06:36:24;;;;;;;2.90;0.97;;;3.30;99.90;;;;;;5018533;28;20641;-75
2023/04/04 06:38:51;;;;;;;3.20;1.40;;;3.50;99.90;;;;;;4994658;28;20040;-75
2023/04/04 06:41:20;;;;;;;3.70;1.63;;;3.60;99.90;;;;;;4980707;28;20037;-75
2023/04/04 06:43:49;;;;;;;3.37;1.03;;;3.70;99.90;;;;;;5010989;28;20032;-76
2023/04/04 06:46:15;;;;;;;2.50;0.83;;;3.80;99.90;;;;;;5004965;28;20040;-76
2023/04/04 06:48:42;;;;;;;2.70;0.70;;;4.00;99.90;;;;;;5018654;28;20039;-76
2023/04/04 06:51:08;;;;;;;2.30;0.90;;;4.10;99.90;;;;;;5006210;28;20498;-75
2023/04/04 06:53:37;;;;;;;3.40;0.80;;;4.20;99.90;;;;;;5010987;28;20481;-75
2023/04/04 06:56:04;;;;;;;3.63;0.63;;;4.40;99.90;;;;;;5017534;28;20060;-76
2023/04/04 06:58:31;;;;;;;4.47;1.00;;;4.60;99.90;;;;;;5015419;28;20348;-75
2023/04/04 07:01:01;;;;;;;2.43;0.77;;;4.80;99.90;;;;;;5012205;28;20246;-75
2023/04/04 07:03:27;;;;;;;2.77;1.10;;;4.90;99.90;;;;;;4994391;28;20539;-75
2023/04/04 07:05:53;;;;;;;3.20;0.70;;;4.90;99.90;;;;;;5016880;28;20040;-75
2023/04/04 07:08:19;;;;;;;5.83;1.13;;;5.00;99.90;;;;;;5018530;28;20033;-76
2023/04/04 07:10:46;;;;;;;3.70;1.20;;;5.20;99.90;;;;;;5000644;28;20317;-76
2023/04/04 07:13:12;;;;;;;3.23;0.80;;;5.20;99.90;;;;;;5011908;28;20044;-77
2023/04/04 07:15:38;;;;;;;6.20;1.30;;;5.30;99.90;;;;;;5016490;28;20033;-74
2023/04/04 07:18:06;;;;;;;5.17;1.10;;;5.40;99.90;;;;;;5033636;28;20025;-74
2023/04/04 07:20:32;;;;;;;4.23;1.03;;;5.50;99.90;;;;;;5012813;28;20422;-74
2023/04/04 07:22:58;;;;;;;3.73;1.23;;;5.60;99.90;;;;;;5008240;28;20051;-76
2023/04/04 07:25:25;;;;;;;4.73;1.10;;;5.60;99.90;;;;;;4994814;28;20036;-75
2023/04/04 07:27:53;;;;;;;3.33;0.83;;;5.70;99.90;;;;;;5003163;28;20440;-75
2023/04/04 07:30:21;;;;;;;5.23;1.40;;;5.80;99.90;;;;;;5035622;28;20032;-76
2023/04/04 07:32:55;;;;;;;2.87;1.17;;;5.90;99.90;;;;;;5012398;28;20119;-74
2023/04/04 07:35:21;;;;;;;4.57;0.90;;;6.00;99.90;;;;;;5014002;28;20410;-75
2023/04/04 07:37:47;;;;;;;3.13;1.07;;;6.10;99.90;;;;;;5014042;28;20032;-76
2023/04/04 07:40:13;;;;;;;4.23;1.10;;;6.30;99.90;;;;;;5022586;28;20055;-76
2023/04/04 07:42:46;;;;;;;4.37;1.03;;;6.30;99.90;;;;;;5009468;28;20029;-74
2023/04/04 07:45:12;;;;;;;;;;;6.30;99.90;;;;;;5034021;28;20044;-76
2023/04/04 07:47:43;;;;;;;5.13;1.93;;;6.40;99.90;;;;;;5035914;28;19909;-76
2023/04/04 07:50:10;;;;;;;2.58;1.20;;;6.50;99.90;;;;;;5015326;28;20538;-76
2023/04/04 07:52:37;;;;;;;4.33;0.80;;;6.60;99.60;;;;;;5012266;28;20359;-76
2023/04/04 07:55:06;;;;;;;3.63;1.50;;;6.70;99.90;;;;;;5016081;28;20044;-75
2023/04/04 07:57:33;;;;;;;3.60;1.05;;;6.80;99.80;;;;;;5033663;28;20044;-76
2023/04/04 07:59:59;;;;;;;3.10;1.20;;;6.90;99.30;;;;;;5031800;28;20621;-74
2023/04/04 08:02:25;;;;;;;3.58;0.93;;;7.00;99.20;;;;;;5027829;28;20036;-76
2023/04/04 08:04:52;;;;;;;3.10;1.23;;;7.10;99.20;;;;;;4997721;28;20044;-76
2023/04/04 08:07:18;;;;;;;3.20;1.00;;;7.30;99.00;;;;;;5015496;28;20033;-75
2023/04/04 08:09:44;;;;;;;3.50;1.00;;;7.30;99.00;;;;;;5036660;28;20032;-76
2023/04/04 08:12:11;;;;;;;3.72;0.90;;;7.50;98.80;;;;;;5028468;28;20044;-75
2023/04/04 08:14:37;;;;;;;6.72;0.90;;;7.60;98.50;;;;;;5014437;28;20025;-73
2023/04/04 08:17:03;;;;;;;3.13;0.75;;;7.60;97.70;;;;;;5013952;28;20028;-74
2023/04/04 08:19:30;;;;;;;3.75;1.15;;;7.60;97.40;;;;;;5033137;28;20060;-75
2023/04/04 08:21:56;;;;;;;3.67;0.70;;;7.70;97.20;;;;;;5029241;28;20039;-74
2023/04/04 08:24:23;;;;;;;4.05;0.90;;;7.70;97.00;;;;;;4997021;28;20464;-74
2023/04/04 08:26:49;;;;;;;4.30;0.90;;;7.80;96.90;;;;;;5033765;28;20059;-74
2023/04/04 08:29:15;;;;;;;4.30;1.02;;;7.90;96.60;;;;;;5035931;28;20399;-75
2023/04/04 08:31:42;;;;;;;3.13;0.82;;;8.10;96.50;;;;;;5033500;28;20025;-73
2023/04/04 08:34:08;;;;;;;2.30;1.08;;;8.20;96.00;;;;;;5032985;28;20444;-74
2023/04/04 08:36:34;;;;;;;2.20;1.10;;;8.20;95.50;;;;;;5037179;28;20506;-73
2023/04/04 08:39:02;;;;;;;6.50;1.27;;;8.30;95.10;;;;;;4987085;28;21122;-74
2023/04/04 08:41:30;;;;;;;5.50;1.33;;;8.20;94.20;;;;;;5016013;28;20038;-74
2023/04/04 08:44:00;;;;;;;2.35;0.80;;;8.20;94.50;;;;;;5029932;28;20036;-75
2023/04/04 08:46:27;;;;;;;2.47;0.77;;;8.30;94.40;;;;;;5038006;28;20045;-73
2023/04/04 08:48:55;;;;;;;2.35;0.70;;;8.40;94.60;;;;;;5017350;28;20044;-73
2023/04/04 08:51:25;;;;;;;2.20;0.80;;;8.60;94.80;;;;;;5003161;28;20048;-74
2023/04/04 08:53:53;;;;;;;3.03;1.00;;;8.70;94.20;;;;;;5035521;28;20036;-75
2023/04/04 08:56:20;;;;;;;4.18;1.00;;;8.80;93.50;;;;;;5018842;28;20609;-75
2023/04/04 08:58:46;;;;;;;5.70;1.58;;;8.90;93.00;;;;;;5018746;28;20525;-74
2023/04/04 09:01:13;;;;;;;4.15;0.85;;;9.00;92.40;;;;;;5035510;28;20025;-73
2023/04/04 09:03:40;;;;;;;3.85;1.33;;;9.00;91.90;;;;;;5031844;28;20054;-73
2023/04/04 09:06:07;;;;;;;3.70;1.00;;;9.00;91.50;;;;;;5036194;28;20041;-73
2023/04/04 09:08:34;;;;;;;5.60;1.40;;;9.00;91.30;;;;;;5017777;28;20063;-75
2023/04/04 09:11:02;;;;;;;3.28;1.20;;;9.10;91.50;;;;;;5019488;28;20080;-75
2023/04/04 09:13:28;;;;;;;5.57;1.00;;;9.10;91.10;;;;;;4999542;28;20047;-73
2023/04/04 09:15:57;;;;;;;5.35;1.00;;;9.20;91.10;;;;;;5019782;28;20036;-74
2023/04/04 09:18:23;;;;;;;3.70;0.90;;;9.30;90.70;;;;;;5035877;28;20816;-74
2023/04/04 09:20:50;;;;;;;3.42;1.25;;;9.30;90.40;;;;;;5015033;28;20052;-74
2023/04/04 09:23:19;;;;;;;3.10;1.02;;;9.30;89.60;;;;;;5010492;28;20077;-74
2023/04/04 09:25:54;;;;;;;5.82;1.10;;;9.30;90.20;;;;;;5013654;28;20047;-74
2023/04/04 09:28:22;;;;;;;3.30;0.95;;;9.40;90.00;;;;;;5016017;28;20044;-75
2023/04/04 09:30:50;;;;;;;4.03;0.95;;;9.40;88.70;;;;;;5037950;28;20036;-74
2023/04/04 09:33:17;;;;;;;3.13;1.00;;;9.40;88.50;;;;;;5036583;28;20025;-75
2023/04/04 09:35:45;;;;;;;3.63;1.00;;;9.50;89.00;;;;;;5018815;28;20039;-74
2023/04/04 09:38:14;;;;;;;4.80;1.40;;;9.60;88.20;;;;;;5015999;28;20363;-73
2023/04/04 09:40:41;;;;;;;5.05;1.00;;;9.70;88.00;;;;;;5034250;28;20031;-74
2023/04/04 09:43:08;;;;;;;5.18;1.10;;;9.70;87.90;;;;;;5023844;28;20032;-75
2023/04/04 09:45:41;;;;;;;2.70;0.90;;;9.90;87.70;;;;;;5016771;28;20127;-73
2023/04/04 09:48:08;;;;;;;5.65;1.25;;;9.90;87.20;;;;;;5012415;28;20036;-74
2023/04/04 09:50:36;;;;;;;4.95;1.13;;;10.00;86.60;;;;;;5017474;28;20265;-74
2023/04/04 09:53:02;;;;;;;5.50;1.00;;;10.10;86.30;;;;;;5014661;28;20047;-74
2023/04/04 09:55:32;;;;;;;4.43;1.13;;;10.20;86.10;;;;;;5004053;28;21093;-74
2023/04/04 09:58:01;;;;;;;5.10;1.77;;;10.20;85.30;;;;;;5015386;28;20494;-74
2023/04/04 10:00:37;;;;;;;3.97;1.50;;;10.20;84.70;;;;;;5032496;28;20148;-74
2023/04/04 10:03:04;;;;;;;2.55;0.93;;;10.10;84.00;;;;;;5029629;28;20600;-73
2023/04/04 10:05:31;;;;;;;4.70;1.10;;;10.10;84.40;;;;;;5016846;28;20518;-74
2023/04/04 10:07:58;;;;;;;3.05;0.95;;;10.30;84.60;;;;;;5015767;28;20502;-74
2023/04/04 10:10:30;;;;;;;5.30;1.80;;;10.40;83.80;;;;;;5015483;28;20036;-73
2023/04/04 10:12:57;;;;;;;3.55;1.17;;;10.60;83.60;;;;;;5019347;28;20029;-75
2023/04/04 10:15:33;;;;;;;4.35;1.65;;;10.60;83.00;;;;;;5019137;28;20048;-74
2023/04/04 10:18:00;;;;;;;3.97;1.15;;;10.70;82.00;;;;;;5037047;28;20048;-75
2023/04/04 10:20:26;;;;;;;3.50;1.23;;;10.60;80.90;;;;;;5032960;28;20055;-74
2023/04/04 10:22:53;;;;;;;7.32;1.92;;;10.70;81.30;;;;;;5029692;28;20035;-75
2023/04/04 10:25:19;;;;;;;3.45;1.33;;;10.80;81.30;;;;;;5017875;28;20049;-75
2023/04/04 10:27:46;;;;;;;4.20;1.40;;;11.10;82.00;;;;;;5028057;28;20041;-74
2023/04/04 10:30:12;;;;;;;4.07;1.30;;;11.40;82.30;;;;;;5013522;28;20518;-74
2023/04/04 10:33:01;;;;;;;3.55;1.38;;;11.70;81.30;;;;;;5032901;28;20021;-75
2023/04/04 10:35:28;;;;;;;4.00;1.23;;;11.90;79.80;;;;;;5006922;28;20364;-74
2023/04/04 10:38:01;;;;;;;5.25;1.15;;;12.10;81.10;;;;;;5020349;28;20032;-76
2023/04/04 10:40:37;;;;;;;3.10;1.30;;;12.50;80.30;;;;;;5012373;28;20041;-76
2023/04/04 10:43:05;;;;;;;5.68;1.48;;;12.80;79.60;;;;;;5030436;28;20640;-74
2023/04/04 10:45:33;;;;;;;4.55;1.52;;;13.10;79.20;;;;;;5036470;28;20493;-76
2023/04/04 10:48:01;;;;;;;3.30;1.25;;;13.40;74.50;;;;;;5035396;28;20502;-75
2023/04/04 10:50:30;;;;;;;8.45;1.48;;;13.50;74.40;;;;;;5014602;28;20399;-75
2023/04/04 10:52:59;;;;;;;3.28;1.23;;;13.60;73.20;;;;;;4999311;28;20025;-75
2023/04/04 10:55:27;;;;;;;3.78;1.20;;;13.80;74.70;;;;;;5020953;28;20492;-76
2023/04/04 10:57:55;;;;;;;3.03;1.02;;;14.20;74.90;;;;;;5018597;28;20032;-75
2023/04/04 11:00:23;;;;;;;3.97;1.30;;;14.60;74.40;;;;;;5014336;28;20591;-76
2023/04/04 11:02:56;;;;;;;3.45;1.10;;;14.90;73.20;;;;;;5010679;28;20029;-75
2023/04/04 11:05:23;;;;;;;4.72;1.30;;;15.00;71.60;;;;;;5036942;28;20546;-75
2023/04/04 11:07:58;;;;;;;3.83;1.42;;;15.10;71.20;;;;;;5015153;28;20415;-74
2023/04/04 11:10:30;;;;;;;3.03;1.45;;;15.30;70.10;;;;;;4983909;28;20617;-77
2023/04/04 11:13:06;;;;;;;4.43;2.67;;;15.50;69.70;;;;;;5014994;28;20032;-77
2023/04/04 11:15:59;;;;;;;4.97;2.25;;;15.70;68.00;;;;;;5021074;28;20712;-76
2023/04/04 11:18:31;;;;;;;4.63;1.63;;;16.00;67.40;;;;;;5040220;28;20039;-76
2023/04/04 11:21:02;;;;;;;7.85;2.05;;;16.30;66.40;;;;;;5012173;28;20052;-75
2023/04/04 11:23:46;;;;;;;4.35;1.60;;;16.50;63.90;;;;;;5030433;28;20051;-74
2023/04/04 11:26:38;;;;;;;3.55;1.20;;;16.60;64.20;;;;;;5035307;28;20044;-75
2023/04/04 11:29:08;;;;;;;3.95;1.60;;;16.70;64.60;;;;;;5008928;28;20029;-75
2023/04/04 11:31:43;;;;;;;3.15;1.10;;;16.90;64.40;;;;;;5032597;28;20395;-75
2023/04/04 11:34:15;;;;;;;3.85;1.05;;;17.10;62.90;;;;;;5033844;28;20025;-74
2023/04/04 11:36:43;;;;;;;3.22;1.20;;;17.20;62.70;;;;;;5019352;28;20028;-74
2023/04/04 11:39:30;;;;;;;3.58;1.17;;;17.30;61.80;;;;;;5018040;28;20440;-74
2023/04/04 11:42:07;;;;;;;4.85;1.30;;;17.50;60.80;;;;;;5029439;28;20040;-74
2023/04/04 11:44:41;;;;;;;4.22;1.60;;;17.80;60.30;;;;;;5034493;28;20534;-74
2023/04/04 11:47:09;;;;;;;3.30;1.30;;;18.00;58.50;;;;;;5016323;28;20399;-75
2023/04/04 11:49:38;;;;;;;4.20;1.55;;;18.20;59.50;;;;;;5016170;28;20044;-75
2023/04/04 11:52:07;;;;;;;4.72;1.58;;;18.50;58.60;;;;;;4993120;28;20590;-75
2023/04/04 11:54:34;;;;;;;5.60;1.52;;;18.60;58.30;;;;;;5001588;28;20047;-75
2023/04/04 11:57:02;;;;;;;3.55;1.20;;;18.90;57.80;;;;;;5040441;28;20044;-75
2023/04/04 11:59:29;;;;;;;4.53;1.05;;;19.20;54.20;;;;;;5037749;28;20033;-74
2023/04/04 12:01:56;;;;;;;4.40;1.25;;;19.20;53.70;;;;;;5008789;28;20037;-74
2023/04/04 12:04:25;;;;;;;3.45;1.30;;;19.30;53.70;;;;;;5032872;28;20039;-75
2023/04/04 12:06:53;;;;;;;5.13;1.50;;;19.80;53.80;;;;;;5035397;28;20044;-74
2023/04/04 12:09:22;;;;;;;4.65;1.40;;;20.30;53.30;;;;;;5032379;28;20931;-74
2023/04/04 12:11:49;;;;;;;3.60;1.10;;;20.50;51.80;;;;;;5007083;28;20379;-72
2023/04/04 12:14:20;;;;;;;3.83;1.35;;;20.70;51.50;;;;;;4996743;28;20033;-71
2023/04/04 12:16:49;;;;;;;4.82;1.35;;;20.80;49.90;;;;;;5020296;28;20352;-72
2023/04/04 12:19:17;;;;;;;3.28;1.83;;;21.10;49.20;;;;;;5036773;28;20028;-73
2023/04/04 12:21:47;;;;;;;4.18;1.00;;;21.20;48.40;;;;;;5030342;28;20033;-72
2023/04/04 12:24:14;;;;;;;4.50;1.50;;;21.50;48.40;;;;;;5030505;28;20468;-71
2023/04/04 12:26:46;;;;;;;3.08;1.13;;;21.80;48.70;;;;;;5033276;28;20028;-72
2023/04/04 12:29:15;;;;;;;3.25;1.20;;;22.00;48.30;;;;;;5013357;28;20032;-75
2023/04/04 12:31:43;;;;;;;2.67;1.10;;;22.40;48.00;;;;;;5027972;28;20471;-74
2023/04/04 12:34:27;;;;;;;4.47;1.73;;;22.40;47.00;;;;;;5013404;28;20041;-74
2023/04/04 12:36:57;;;;;;;2.38;1.20;;;22.50;45.30;;;;;;5039190;28;20061;-75
2023/04/04 12:39:28;;;;;;;3.95;1.10;;;22.60;46.30;;;;;;5035771;28;20570;-75
2023/04/04 12:41:58;;;;;;;2.28;1.20;;;22.50;44.70;;;;;;5005835;28;20040;-74
2023/04/04 12:44:29;;;;;;;2.67;1.02;;;22.20;45.10;;;;;;5031558;28;20029;-75
2023/04/04 12:47:00;;;;;;;4.72;1.30;;;22.10;45.10;;;;;;5014079;28;20041;-74
2023/04/04 12:49:31;;;;;;;2.47;1.15;;;22.30;45.10;;;;;;5028915;28;20040;-75
2023/04/04 12:52:03;;;;;;;4.80;1.48;;;22.70;45.30;;;;;;5003411;28;20036;-74
2023/04/04 12:54:31;;;;;;;4.78;1.50;;;22.90;43.70;;;;;;5028162;28;20059;-74
2023/04/04 12:57:02;;;;;;;3.67;1.08;;;22.80;43.70;;;;;;5015942;28;20067;-74
2023/04/04 12:59:31;;;;;;;3.92;1.20;;;22.60;42.40;;;;;;5035150;28;20569;-75
2023/04/04 13:02:01;;;;;;;4.90;1.38;;;22.10;43.70;;;;;;4992636;28;20044;-74